LTBI Airport Information

Runway Information
Runway 09 Length 10006 ft width 150 ft
Elevation 2581 ft Threshold 0 ft Heading 90
Runway 27 Length 10006 ft Width 150 ft
Elevation 2570 ft Threshold 0 ft Heading 270
Airport Frequencies
Type APP Name APP Frequency 122.1 MHZ
Type ATIS Name ATIS Frequency 122.425 MHZ
Type GND Name GND Frequency 121.95 MHZ
Type TWR Name TWR Frequency 122.1 MHZ
Airport Navaids
Type TACAN Name Eskisehir Frequency 114400 KHZ
Airport Weather Information & NOTAM
ADDS - METARS form results

(1934 UTC 14 November 2018)
Data provider http://aviationweather.gov/metar/data/
 
Forecast for: LTBI (ESKISEHIR (TUR-A, TR)
Text: TAF LTBI 141640Z 1418/1503 30008KT 9999 FEW040 SCT200
Forecast period: 1800 UTC 14 November 2018 to 0300 UTC 15 November 2018
Forecast type: FROM: standard forecast or significant change
Winds: from the WNW (300 degrees) at 9 MPH (8 knots; 4.1 m/s)
Visibility: 6 or more miles 10+ km)
Ceiling: at least 12,000 feet AGL
Clouds: few clouds at 4000 feet AGL
scattered clouds at 20000 feet AGL
Weather: no significant weather forecast for this period